sensor_id;sensor_type;location;lat;lon;timestamp;P1;durP1;ratioP1;P2;durP2;ratioP2
14849;SDS011;7517;48.400;11.770;2023-04-01T00:00:50;0.70;;;0.30;;
14849;SDS011;7517;48.400;11.770;2023-04-01T00:03:19;0.20;;;0.20;;
14849;SDS011;7517;48.400;11.770;2023-04-01T00:05:47;1.10;;;0.30;;
14849;SDS011;7517;48.400;11.770;2023-04-01T00:08:17;0.10;;;0.07;;
14849;SDS011;7517;48.400;11.770;2023-04-01T00:10:44;0.50;;;0.20;;
14849;SDS011;7517;48.400;11.770;2023-04-01T00:13:12;0.30;;;0.10;;
14849;SDS011;7517;48.400;11.770;2023-04-01T00:15:39;0.30;;;0.10;;
14849;SDS011;7517;48.400;11.770;2023-04-01T00:18:08;0.17;;;0.10;;
14849;SDS011;7517;48.400;11.770;2023-04-01T00:20:36;0.23;;;0.20;;
14849;SDS011;7517;48.400;11.770;2023-04-01T00:23:03;0.53;;;0.20;;
14849;SDS011;7517;48.400;11.770;2023-04-01T00:25:33;0.37;;;0.33;;
14849;SDS011;7517;48.400;11.770;2023-04-01T00:28:00;1.33;;;0.20;;
14849;SDS011;7517;48.400;11.770;2023-04-01T00:30:27;0.37;;;0.20;;
14849;SDS011;7517;48.400;11.770;2023-04-01T00:32:56;0.87;;;0.30;;
14849;SDS011;7517;48.400;11.770;2023-04-01T00:35:25;0.50;;;0.13;;
14849;SDS011;7517;48.400;11.770;2023-04-01T00:37:53;0.37;;;0.20;;
14849;SDS011;7517;48.400;11.770;2023-04-01T00:40:26;0.47;;;0.17;;
14849;SDS011;7517;48.400;11.770;2023-04-01T00:43:01;0.10;;;0.10;;
14849;SDS011;7517;48.400;11.770;2023-04-01T00:45:30;0.97;;;0.20;;
14849;SDS011;7517;48.400;11.770;2023-04-01T00:48:02;0.50;;;0.33;;
14849;SDS011;7517;48.400;11.770;2023-04-01T00:50:33;0.53;;;0.20;;
14849;SDS011;7517;48.400;11.770;2023-04-01T00:53:02;1.90;;;0.20;;
14849;SDS011;7517;48.400;11.770;2023-04-01T00:55:32;0.63;;;0.37;;
14849;SDS011;7517;48.400;11.770;2023-04-01T00:58:06;0.87;;;0.30;;
14849;SDS011;7517;48.400;11.770;2023-04-01T01:00:39;0.63;;;0.50;;
14849;SDS011;7517;48.400;11.770;2023-04-01T01:03:08;0.90;;;0.30;;
14849;SDS011;7517;48.400;11.770;2023-04-01T01:05:40;0.20;;;0.20;;
14849;SDS011;7517;48.400;11.770;2023-04-01T01:08:27;0.97;;;0.40;;
14849;SDS011;7517;48.400;11.770;2023-04-01T01:11:15;0.40;;;0.20;;
14849;SDS011;7517;48.400;11.770;2023-04-01T01:13:55;0.87;;;0.23;;
14849;SDS011;7517;48.400;11.770;2023-04-01T01:16:31;0.10;;;0.10;;
14849;SDS011;7517;48.400;11.770;2023-04-01T01:19:09;0.87;;;0.30;;
14849;SDS011;7517;48.400;11.770;2023-04-01T01:22:04;0.70;;;0.30;;
14849;SDS011;7517;48.400;11.770;2023-04-01T01:24:58;1.77;;;0.50;;
14849;SDS011;7517;48.400;11.770;2023-04-01T01:27:54;0.20;;;0.10;;
14849;SDS011;7517;48.400;11.770;2023-04-01T01:30:41;0.23;;;0.23;;
14849;SDS011;7517;48.400;11.770;2023-04-01T01:33:24;1.07;;;0.40;;
14849;SDS011;7517;48.400;11.770;2023-04-01T01:36:30;0.40;;;0.20;;
14849;SDS011;7517;48.400;11.770;2023-04-01T01:39:00;1.00;;;0.37;;
14849;SDS011;7517;48.400;11.770;2023-04-01T01:41:32;0.30;;;0.10;;
14849;SDS011;7517;48.400;11.770;2023-04-01T01:44:07;0.43;;;0.10;;
14849;SDS011;7517;48.400;11.770;2023-04-01T01:46:39;0.57;;;0.33;;
14849;SDS011;7517;48.400;11.770;2023-04-01T01:49:09;1.20;;;0.30;;
14849;SDS011;7517;48.400;11.770;2023-04-01T01:51:42;0.60;;;0.30;;
14849;SDS011;7517;48.400;11.770;2023-04-01T01:54:11;1.07;;;0.40;;
14849;SDS011;7517;48.400;11.770;2023-04-01T01:56:39;0.30;;;0.17;;
14849;SDS011;7517;48.400;11.770;2023-04-01T01:59:11;0.40;;;0.20;;
14849;SDS011;7517;48.400;11.770;2023-04-01T02:01:42;0.20;;;0.10;;
14849;SDS011;7517;48.400;11.770;2023-04-01T02:04:15;0.40;;;0.20;;
14849;SDS011;7517;48.400;11.770;2023-04-01T02:06:47;0.70;;;0.20;;
14849;SDS011;7517;48.400;11.770;2023-04-01T02:09:22;0.50;;;0.10;;
14849;SDS011;7517;48.400;11.770;2023-04-01T02:11:49;0.10;;;0.10;;
14849;SDS011;7517;48.400;11.770;2023-04-01T02:14:22;1.03;;;0.40;;
14849;SDS011;7517;48.400;11.770;2023-04-01T02:16:53;2.73;;;0.40;;
14849;SDS011;7517;48.400;11.770;2023-04-01T02:19:25;0.87;;;0.20;;
14849;SDS011;7517;48.400;11.770;2023-04-01T02:21:59;0.47;;;0.10;;
14849;SDS011;7517;48.400;11.770;2023-04-01T02:24:31;0.87;;;0.20;;
14849;SDS011;7517;48.400;11.770;2023-04-01T02:27:01;1.63;;;0.20;;
14849;SDS011;7517;48.400;11.770;2023-04-01T02:29:30;0.63;;;0.20;;
14849;SDS011;7517;48.400;11.770;2023-04-01T02:31:58;0.83;;;0.23;;
14849;SDS011;7517;48.400;11.770;2023-04-01T02:34:27;1.87;;;0.30;;
14849;SDS011;7517;48.400;11.770;2023-04-01T02:36:55;0.33;;;0.30;;
14849;SDS011;7517;48.400;11.770;2023-04-01T02:39:25;0.50;;;0.10;;
14849;SDS011;7517;48.400;11.770;2023-04-01T02:41:52;0.70;;;0.20;;
14849;SDS011;7517;48.400;11.770;2023-04-01T02:44:20;0.70;;;0.20;;
14849;SDS011;7517;48.400;11.770;2023-04-01T02:46:47;0.53;;;0.20;;
14849;SDS011;7517;48.400;11.770;2023-04-01T02:49:15;0.23;;;0.10;;
14849;SDS011;7517;48.400;11.770;2023-04-01T02:51:42;0.30;;;0.30;;
14849;SDS011;7517;48.400;11.770;2023-04-01T02:54:09;0.40;;;0.20;;
14849;SDS011;7517;48.400;11.770;2023-04-01T02:56:38;1.20;;;0.40;;
14849;SDS011;7517;48.400;11.770;2023-04-01T02:59:05;0.30;;;0.20;;
14849;SDS011;7517;48.400;11.770;2023-04-01T03:01:33;0.60;;;0.10;;
14849;SDS011;7517;48.400;11.770;2023-04-01T03:04:00;1.43;;;0.10;;
14849;SDS011;7517;48.400;11.770;2023-04-01T03:06:28;0.37;;;0.23;;
14849;SDS011;7517;48.400;11.770;2023-04-01T03:08:56;0.43;;;0.40;;
14849;SDS011;7517;48.400;11.770;2023-04-01T03:11:23;0.43;;;0.30;;
14849;SDS011;7517;48.400;11.770;2023-04-01T03:13:52;1.03;;;0.30;;
14849;SDS011;7517;48.400;11.770;2023-04-01T03:16:19;0.33;;;0.17;;
14849;SDS011;7517;48.400;11.770;2023-04-01T03:18:47;0.50;;;0.30;;
14849;SDS011;7517;48.400;11.770;2023-04-01T03:21:18;0.60;;;0.23;;
14849;SDS011;7517;48.400;11.770;2023-04-01T03:23:47;0.30;;;0.20;;
14849;SDS011;7517;48.400;11.770;2023-04-01T03:26:15;0.30;;;0.30;;
14849;SDS011;7517;48.400;11.770;2023-04-01T03:28:43;0.90;;;0.37;;
14849;SDS011;7517;48.400;11.770;2023-04-01T03:31:12;0.63;;;0.10;;
14849;SDS011;7517;48.400;11.770;2023-04-01T03:33:42;0.20;;;0.10;;
14849;SDS011;7517;48.400;11.770;2023-04-01T03:36:09;0.43;;;0.30;;
14849;SDS011;7517;48.400;11.770;2023-04-01T03:38:37;0.80;;;0.20;;
14849;SDS011;7517;48.400;11.770;2023-04-01T03:41:07;0.37;;;0.20;;
14849;SDS011;7517;48.400;11.770;2023-04-01T03:43:38;0.20;;;0.20;;
14849;SDS011;7517;48.400;11.770;2023-04-01T03:46:06;0.30;;;0.10;;
14849;SDS011;7517;48.400;11.770;2023-04-01T03:48:34;0.33;;;0.10;;
14849;SDS011;7517;48.400;11.770;2023-04-01T03:51:06;0.13;;;0.10;;
14849;SDS011;7517;48.400;11.770;2023-04-01T03:53:34;0.27;;;0.00;;
14849;SDS011;7517;48.400;11.770;2023-04-01T03:56:03;0.00;;;0.00;;
14849;SDS011;7517;48.400;11.770;2023-04-01T03:58:31;0.20;;;0.10;;
14849;SDS011;7517;48.400;11.770;2023-04-01T04:00:59;0.10;;;0.10;;
14849;SDS011;7517;48.400;11.770;2023-04-01T04:03:26;0.17;;;0.10;;
14849;SDS011;7517;48.400;11.770;2023-04-01T04:05:55;0.20;;;0.10;;
14849;SDS011;7517;48.400;11.770;2023-04-01T04:08:22;0.43;;;0.10;;
14849;SDS011;7517;48.400;11.770;2023-04-01T04:10:54;0.10;;;0.10;;
14849;SDS011;7517;48.400;11.770;2023-04-01T04:13:22;0.10;;;0.10;;
14849;SDS011;7517;48.400;11.770;2023-04-01T04:15:50;0.00;;;0.00;;
14849;SDS011;7517;48.400;11.770;2023-04-01T04:18:17;0.20;;;0.10;;
14849;SDS011;7517;48.400;11.770;2023-04-01T04:20:45;0.87;;;0.10;;
14849;SDS011;7517;48.400;11.770;2023-04-01T04:23:18;0.20;;;0.10;;
14849;SDS011;7517;48.400;11.770;2023-04-01T04:25:52;0.20;;;0.10;;
14849;SDS011;7517;48.400;11.770;2023-04-01T04:28:22;0.00;;;0.00;;
14849;SDS011;7517;48.400;11.770;2023-04-01T04:30:51;0.10;;;0.00;;
14849;SDS011;7517;48.400;11.770;2023-04-01T04:33:18;0.13;;;0.00;;
14849;SDS011;7517;48.400;11.770;2023-04-01T04:35:46;0.30;;;0.10;;
14849;SDS011;7517;48.400;11.770;2023-04-01T04:38:15;0.43;;;0.20;;
14849;SDS011;7517;48.400;11.770;2023-04-01T04:40:45;0.30;;;0.20;;
14849;SDS011;7517;48.400;11.770;2023-04-01T04:43:13;0.67;;;0.07;;
14849;SDS011;7517;48.400;11.770;2023-04-01T04:45:42;0.10;;;0.10;;
14849;SDS011;7517;48.400;11.770;2023-04-01T04:48:11;0.10;;;0.10;;
14849;SDS011;7517;48.400;11.770;2023-04-01T04:50:43;0.50;;;0.10;;
14849;SDS011;7517;48.400;11.770;2023-04-01T04:53:14;0.10;;;0.10;;
14849;SDS011;7517;48.400;11.770;2023-04-01T04:55:44;0.10;;;0.10;;
14849;SDS011;7517;48.400;11.770;2023-04-01T04:58:14;0.27;;;0.10;;
14849;SDS011;7517;48.400;11.770;2023-04-01T05:00:42;0.10;;;0.00;;
14849;SDS011;7517;48.400;11.770;2023-04-01T05:03:10;0.60;;;0.20;;
14849;SDS011;7517;48.400;11.770;2023-04-01T05:05:39;0.00;;;0.00;;
14849;SDS011;7517;48.400;11.770;2023-04-01T05:08:15;0.33;;;0.20;;
14849;SDS011;7517;48.400;11.770;2023-04-01T05:10:45;0.33;;;0.20;;
14849;SDS011;7517;48.400;11.770;2023-04-01T05:13:12;0.37;;;0.30;;
14849;SDS011;7517;48.400;11.770;2023-04-01T05:15:40;0.30;;;0.30;;
14849;SDS011;7517;48.400;11.770;2023-04-01T05:18:07;0.37;;;0.20;;
14849;SDS011;7517;48.400;11.770;2023-04-01T05:20:34;0.53;;;0.20;;
14849;SDS011;7517;48.400;11.770;2023-04-01T05:23:02;0.10;;;0.10;;
14849;SDS011;7517;48.400;11.770;2023-04-01T05:25:30;0.23;;;0.10;;
14849;SDS011;7517;48.400;11.770;2023-04-01T05:27:59;0.10;;;0.10;;
14849;SDS011;7517;48.400;11.770;2023-04-01T05:30:26;0.23;;;0.10;;
14849;SDS011;7517;48.400;11.770;2023-04-01T05:32:54;0.10;;;0.10;;
14849;SDS011;7517;48.400;11.770;2023-04-01T05:35:21;0.10;;;0.10;;
14849;SDS011;7517;48.400;11.770;2023-04-01T05:37:49;0.30;;;0.10;;
14849;SDS011;7517;48.400;11.770;2023-04-01T05:40:17;0.13;;;0.13;;
14849;SDS011;7517;48.400;11.770;2023-04-01T05:42:47;0.53;;;0.10;;
14849;SDS011;7517;48.400;11.770;2023-04-01T05:45:16;1.30;;;0.27;;
14849;SDS011;7517;48.400;11.770;2023-04-01T05:47:43;0.17;;;0.17;;
14849;SDS011;7517;48.400;11.770;2023-04-01T05:50:11;0.83;;;0.40;;
14849;SDS011;7517;48.400;11.770;2023-04-01T05:52:38;0.50;;;0.20;;
14849;SDS011;7517;48.400;11.770;2023-04-01T05:55:06;0.30;;;0.30;;
14849;SDS011;7517;48.400;11.770;2023-04-01T05:57:34;0.40;;;0.40;;
14849;SDS011;7517;48.400;11.770;2023-04-01T06:00:02;0.70;;;0.60;;
14849;SDS011;7517;48.400;11.770;2023-04-01T06:02:32;0.53;;;0.50;;
14849;SDS011;7517;48.400;11.770;2023-04-01T06:05:03;0.40;;;0.40;;
14849;SDS011;7517;48.400;11.770;2023-04-01T06:07:41;1.53;;;0.30;;
14849;SDS011;7517;48.400;11.770;2023-04-01T06:10:12;1.53;;;0.27;;
14849;SDS011;7517;48.400;11.770;2023-04-01T06:12:45;0.90;;;0.40;;
14849;SDS011;7517;48.400;11.770;2023-04-01T06:15:34;0.30;;;0.30;;
14849;SDS011;7517;48.400;11.770;2023-04-01T06:24:57;1.03;;;0.40;;
14849;SDS011;7517;48.400;11.770;2023-04-01T06:28:36;0.37;;;0.23;;
14849;SDS011;7517;48.400;11.770;2023-04-01T06:31:33;0.47;;;0.17;;
14849;SDS011;7517;48.400;11.770;2023-04-01T06:34:27;0.30;;;0.20;;
14849;SDS011;7517;48.400;11.770;2023-04-01T06:37:25;0.90;;;0.40;;
14849;SDS011;7517;48.400;11.770;2023-04-01T06:40:31;0.40;;;0.20;;
14849;SDS011;7517;48.400;11.770;2023-04-01T06:43:45;0.37;;;0.37;;
14849;SDS011;7517;48.400;11.770;2023-04-01T06:46:28;0.37;;;0.30;;
14849;SDS011;7517;48.400;11.770;2023-04-01T06:49:13;1.37;;;0.50;;
14849;SDS011;7517;48.400;11.770;2023-04-01T06:52:01;0.70;;;0.50;;
14849;SDS011;7517;48.400;11.770;2023-04-01T06:54:42;1.57;;;1.00;;
14849;SDS011;7517;48.400;11.770;2023-04-01T06:57:21;0.87;;;0.60;;
14849;SDS011;7517;48.400;11.770;2023-04-01T06:59:57;0.90;;;0.70;;
14849;SDS011;7517;48.400;11.770;2023-04-01T07:02:29;2.47;;;1.13;;
14849;SDS011;7517;48.400;11.770;2023-04-01T07:05:10;2.70;;;1.33;;
14849;SDS011;7517;48.400;11.770;2023-04-01T07:07:41;2.53;;;1.33;;
14849;SDS011;7517;48.400;11.770;2023-04-01T07:10:23;2.03;;;1.30;;
14849;SDS011;7517;48.400;11.770;2023-04-01T07:13:02;2.03;;;0.90;;
14849;SDS011;7517;48.400;11.770;2023-04-01T07:15:36;0.97;;;0.80;;
14849;SDS011;7517;48.400;11.770;2023-04-01T07:18:09;0.77;;;0.60;;
14849;SDS011;7517;48.400;11.770;2023-04-01T07:20:45;0.60;;;0.47;;
14849;SDS011;7517;48.400;11.770;2023-04-01T07:23:16;1.27;;;0.40;;
14849;SDS011;7517;48.400;11.770;2023-04-01T07:25:51;0.60;;;0.40;;
14849;SDS011;7517;48.400;11.770;2023-04-01T07:28:26;0.30;;;0.20;;
14849;SDS011;7517;48.400;11.770;2023-04-01T07:31:03;0.93;;;0.53;;
14849;SDS011;7517;48.400;11.770;2023-04-01T07:33:43;0.50;;;0.30;;
14849;SDS011;7517;48.400;11.770;2023-04-01T07:36:24;0.87;;;0.30;;
14849;SDS011;7517;48.400;11.770;2023-04-01T07:39:06;1.10;;;0.50;;
14849;SDS011;7517;48.400;11.770;2023-04-01T07:41:53;1.33;;;0.40;;
14849;SDS011;7517;48.400;11.770;2023-04-01T07:44:32;0.47;;;0.23;;
14849;SDS011;7517;48.400;11.770;2023-04-01T07:47:18;0.60;;;0.47;;
14849;SDS011;7517;48.400;11.770;2023-04-01T07:50:11;1.70;;;0.40;;
14849;SDS011;7517;48.400;11.770;2023-04-01T07:52:54;0.30;;;0.20;;
14849;SDS011;7517;48.400;11.770;2023-04-01T07:55:38;0.63;;;0.40;;
14849;SDS011;7517;48.400;11.770;2023-04-01T07:58:14;0.83;;;0.33;;
14849;SDS011;7517;48.400;11.770;2023-04-01T08:00:53;0.27;;;0.27;;
14849;SDS011;7517;48.400;11.770;2023-04-01T08:03:38;0.53;;;0.40;;
14849;SDS011;7517;48.400;11.770;2023-04-01T08:06:27;0.63;;;0.40;;
14849;SDS011;7517;48.400;11.770;2023-04-01T08:09:04;0.90;;;0.40;;
14849;SDS011;7517;48.400;11.770;2023-04-01T08:11:45;0.93;;;0.40;;
14849;SDS011;7517;48.400;11.770;2023-04-01T08:14:30;0.23;;;0.23;;
14849;SDS011;7517;48.400;11.770;2023-04-01T08:17:08;0.43;;;0.20;;
14849;SDS011;7517;48.400;11.770;2023-04-01T08:19:47;0.93;;;0.30;;
14849;SDS011;7517;48.400;11.770;2023-04-01T08:22:37;0.53;;;0.50;;
14849;SDS011;7517;48.400;11.770;2023-04-01T08:25:13;1.47;;;0.40;;
14849;SDS011;7517;48.400;11.770;2023-04-01T08:27:48;0.37;;;0.33;;
14849;SDS011;7517;48.400;11.770;2023-04-01T08:30:22;0.70;;;0.30;;
14849;SDS011;7517;48.400;11.770;2023-04-01T08:33:09;0.73;;;0.30;;
14849;SDS011;7517;48.400;11.770;2023-04-01T08:35:43;0.33;;;0.20;;
14849;SDS011;7517;48.400;11.770;2023-04-01T08:38:19;0.53;;;0.30;;
14849;SDS011;7517;48.400;11.770;2023-04-01T08:41:00;0.30;;;0.30;;
14849;SDS011;7517;48.400;11.770;2023-04-01T08:44:02;0.40;;;0.30;;
14849;SDS011;7517;48.400;11.770;2023-04-01T08:47:22;0.60;;;0.20;;
14849;SDS011;7517;48.400;11.770;2023-04-01T08:50:21;0.63;;;0.33;;
14849;SDS011;7517;48.400;11.770;2023-04-01T08:53:12;0.40;;;0.40;;
14849;SDS011;7517;48.400;11.770;2023-04-01T08:55:56;0.20;;;0.20;;
14849;SDS011;7517;48.400;11.770;2023-04-01T08:58:47;0.57;;;0.40;;
14849;SDS011;7517;48.400;11.770;2023-04-01T09:01:46;0.20;;;0.13;;
14849;SDS011;7517;48.400;11.770;2023-04-01T09:05:04;0.90;;;0.60;;
14849;SDS011;7517;48.400;11.770;2023-04-01T09:08:06;0.33;;;0.33;;
14849;SDS011;7517;48.400;11.770;2023-04-01T09:14:03;0.30;;;0.30;;
14849;SDS011;7517;48.400;11.770;2023-04-01T09:17:01;0.20;;;0.10;;
14849;SDS011;7517;48.400;11.770;2023-04-01T09:20:09;0.20;;;0.10;;
14849;SDS011;7517;48.400;11.770;2023-04-01T09:23:10;0.20;;;0.20;;
14849;SDS011;7517;48.400;11.770;2023-04-01T09:26:10;0.10;;;0.10;;
14849;SDS011;7517;48.400;11.770;2023-04-01T09:29:14;0.30;;;0.20;;
14849;SDS011;7517;48.400;11.770;2023-04-01T09:32:07;0.67;;;0.30;;
14849;SDS011;7517;48.400;11.770;2023-04-01T09:34:53;0.77;;;0.20;;
14849;SDS011;7517;48.400;11.770;2023-04-01T09:37:34;0.30;;;0.20;;
14849;SDS011;7517;48.400;11.770;2023-04-01T09:40:16;0.17;;;0.10;;
14849;SDS011;7517;48.400;11.770;2023-04-01T09:43:12;0.40;;;0.23;;
14849;SDS011;7517;48.400;11.770;2023-04-01T09:45:58;0.33;;;0.23;;
14849;SDS011;7517;48.400;11.770;2023-04-01T09:48:52;0.10;;;0.10;;
14849;SDS011;7517;48.400;11.770;2023-04-01T09:52:08;0.20;;;0.20;;
14849;SDS011;7517;48.400;11.770;2023-04-01T09:54:57;0.33;;;0.30;;
14849;SDS011;7517;48.400;11.770;2023-04-01T09:57:51;0.10;;;0.10;;
14849;SDS011;7517;48.400;11.770;2023-04-01T10:01:11;0.10;;;0.10;;
14849;SDS011;7517;48.400;11.770;2023-04-01T10:10:54;0.10;;;0.10;;
14849;SDS011;7517;48.400;11.770;2023-04-01T10:14:06;0.10;;;0.00;;
14849;SDS011;7517;48.400;11.770;2023-04-01T10:17:39;0.17;;;0.17;;
14849;SDS011;7517;48.400;11.770;2023-04-01T10:20:34;0.17;;;0.03;;
14849;SDS011;7517;48.400;11.770;2023-04-01T10:23:31;0.60;;;0.10;;
14849;SDS011;7517;48.400;11.770;2023-04-01T10:37:10;0.43;;;0.20;;
14849;SDS011;7517;48.400;11.770;2023-04-01T10:43:15;0.90;;;0.63;;
14849;SDS011;7517;48.400;11.770;2023-04-01T10:46:32;1.87;;;0.77;;
14849;SDS011;7517;48.400;11.770;2023-04-01T10:49:41;1.70;;;1.00;;
14849;SDS011;7517;48.400;11.770;2023-04-01T10:52:48;0.50;;;0.30;;
14849;SDS011;7517;48.400;11.770;2023-04-01T10:56:15;0.13;;;0.13;;
14849;SDS011;7517;48.400;11.770;2023-04-01T11:02:45;0.10;;;0.00;;
14849;SDS011;7517;48.400;11.770;2023-04-01T11:09:44;0.17;;;0.17;;
14849;SDS011;7517;48.400;11.770;2023-04-01T11:13:16;0.10;;;0.10;;
14849;SDS011;7517;48.400;11.770;2023-04-01T11:23:10;0.10;;;0.10;;
14849;SDS011;7517;48.400;11.770;2023-04-01T11:26:03;0.20;;;0.20;;
14849;SDS011;7517;48.400;11.770;2023-04-01T11:28:55;0.70;;;0.57;;
14849;SDS011;7517;48.400;11.770;2023-04-01T11:31:58;0.17;;;0.17;;
14849;SDS011;7517;48.400;11.770;2023-04-01T11:34:43;0.67;;;0.00;;
14849;SDS011;7517;48.400;11.770;2023-04-01T11:37:35;0.00;;;0.00;;
14849;SDS011;7517;48.400;11.770;2023-04-01T11:40:14;0.10;;;0.10;;
14849;SDS011;7517;48.400;11.770;2023-04-01T11:42:54;0.10;;;0.10;;
14849;SDS011;7517;48.400;11.770;2023-04-01T11:45:35;0.10;;;0.10;;
14849;SDS011;7517;48.400;11.770;2023-04-01T12:00:49;0.10;;;0.10;;
14849;SDS011;7517;48.400;11.770;2023-04-01T12:03:47;0.10;;;0.00;;
14849;SDS011;7517;48.400;11.770;2023-04-01T12:06:48;0.27;;;0.20;;
14849;SDS011;7517;48.400;11.770;2023-04-01T12:09:30;0.10;;;0.10;;
14849;SDS011;7517;48.400;11.770;2023-04-01T12:12:14;0.10;;;0.10;;
14849;SDS011;7517;48.400;11.770;2023-04-01T12:14:58;0.20;;;0.20;;
14849;SDS011;7517;48.400;11.770;2023-04-01T12:17:42;0.20;;;0.17;;
14849;SDS011;7517;48.400;11.770;2023-04-01T12:20:21;0.20;;;0.20;;
14849;SDS011;7517;48.400;11.770;2023-04-01T12:23:14;0.30;;;0.10;;
14849;SDS011;7517;48.400;11.770;2023-04-01T12:26:06;0.07;;;0.07;;
14849;SDS011;7517;48.400;11.770;2023-04-01T12:29:08;0.10;;;0.10;;
14849;SDS011;7517;48.400;11.770;2023-04-01T12:31:53;0.23;;;0.17;;
14849;SDS011;7517;48.400;11.770;2023-04-01T12:34:42;0.50;;;0.30;;
14849;SDS011;7517;48.400;11.770;2023-04-01T12:38:03;0.27;;;0.20;;
14849;SDS011;7517;48.400;11.770;2023-04-01T12:40:51;0.30;;;0.30;;
14849;SDS011;7517;48.400;11.770;2023-04-01T12:43:48;0.30;;;0.23;;
14849;SDS011;7517;48.400;11.770;2023-04-01T12:46:54;0.20;;;0.20;;
14849;SDS011;7517;48.400;11.770;2023-04-01T12:50:06;0.10;;;0.10;;
14849;SDS011;7517;48.400;11.770;2023-04-01T12:53:13;0.00;;;0.00;;
14849;SDS011;7517;48.400;11.770;2023-04-01T12:56:18;0.10;;;0.07;;
14849;SDS011;7517;48.400;11.770;2023-04-01T12:59:08;0.10;;;0.10;;
14849;SDS011;7517;48.400;11.770;2023-04-01T13:02:07;0.10;;;0.10;;
14849;SDS011;7517;48.400;11.770;2023-04-01T13:08:07;0.30;;;0.20;;
14849;SDS011;7517;48.400;11.770;2023-04-01T13:11:08;0.53;;;0.40;;
14849;SDS011;7517;48.400;11.770;2023-04-01T13:20:02;0.10;;;0.10;;
14849;SDS011;7517;48.400;11.770;2023-04-01T13:22:45;0.20;;;0.20;;
14849;SDS011;7517;48.400;11.770;2023-04-01T13:25:30;0.50;;;0.33;;
14849;SDS011;7517;48.400;11.770;2023-04-01T13:28:12;0.10;;;0.10;;
14849;SDS011;7517;48.400;11.770;2023-04-01T13:30:48;0.20;;;0.20;;
14849;SDS011;7517;48.400;11.770;2023-04-01T13:33:30;0.40;;;0.20;;
14849;SDS011;7517;48.400;11.770;2023-04-01T13:36:15;0.67;;;0.10;;
14849;SDS011;7517;48.400;11.770;2023-04-01T13:39:06;0.10;;;0.10;;
14849;SDS011;7517;48.400;11.770;2023-04-01T13:42:11;0.07;;;0.00;;
14849;SDS011;7517;48.400;11.770;2023-04-01T13:44:47;0.10;;;0.10;;
14849;SDS011;7517;48.400;11.770;2023-04-01T13:47:28;0.17;;;0.17;;
14849;SDS011;7517;48.400;11.770;2023-04-01T13:50:57;0.20;;;0.20;;
14849;SDS011;7517;48.400;11.770;2023-04-01T13:54:15;0.10;;;0.10;;
14849;SDS011;7517;48.400;11.770;2023-04-01T13:57:07;0.10;;;0.10;;
14849;SDS011;7517;48.400;11.770;2023-04-01T14:05:59;0.10;;;0.10;;
14849;SDS011;7517;48.400;11.770;2023-04-01T14:08:44;0.10;;;0.10;;
14849;SDS011;7517;48.400;11.770;2023-04-01T14:11:47;0.23;;;0.00;;
14849;SDS011;7517;48.400;11.770;2023-04-01T14:14:27;0.10;;;0.10;;
14849;SDS011;7517;48.400;11.770;2023-04-01T14:17:17;0.17;;;0.10;;
14849;SDS011;7517;48.400;11.770;2023-04-01T14:20:16;0.10;;;0.10;;
14849;SDS011;7517;48.400;11.770;2023-04-01T14:29:37;0.10;;;0.10;;
14849;SDS011;7517;48.400;11.770;2023-04-01T14:32:26;0.20;;;0.20;;
14849;SDS011;7517;48.400;11.770;2023-04-01T14:35:12;0.17;;;0.17;;
14849;SDS011;7517;48.400;11.770;2023-04-01T14:40:58;0.30;;;0.30;;
14849;SDS011;7517;48.400;11.770;2023-04-01T14:50:16;0.20;;;0.13;;
14849;SDS011;7517;48.400;11.770;2023-04-01T14:52:52;0.20;;;0.20;;
14849;SDS011;7517;48.400;11.770;2023-04-01T14:55:44;0.33;;;0.23;;
14849;SDS011;7517;48.400;11.770;2023-04-01T14:58:18;0.30;;;0.30;;
14849;SDS011;7517;48.400;11.770;2023-04-01T15:00:54;0.40;;;0.40;;
14849;SDS011;7517;48.400;11.770;2023-04-01T15:03:38;0.30;;;0.30;;
14849;SDS011;7517;48.400;11.770;2023-04-01T15:09:30;0.30;;;0.30;;
14849;SDS011;7517;48.400;11.770;2023-04-01T15:12:12;0.30;;;0.30;;
14849;SDS011;7517;48.400;11.770;2023-04-01T15:17:58;0.30;;;0.30;;
14849;SDS011;7517;48.400;11.770;2023-04-01T15:20:40;0.17;;;0.17;;
14849;SDS011;7517;48.400;11.770;2023-04-01T15:23:34;0.27;;;0.20;;
14849;SDS011;7517;48.400;11.770;2023-04-01T15:26:21;0.30;;;0.20;;
14849;SDS011;7517;48.400;11.770;2023-04-01T15:29:33;0.30;;;0.30;;
14849;SDS011;7517;48.400;11.770;2023-04-01T15:32:51;0.20;;;0.17;;
14849;SDS011;7517;48.400;11.770;2023-04-01T15:35:37;0.30;;;0.30;;
14849;SDS011;7517;48.400;11.770;2023-04-01T15:38:18;0.33;;;0.30;;
14849;SDS011;7517;48.400;11.770;2023-04-01T15:41:03;0.30;;;0.20;;
14849;SDS011;7517;48.400;11.770;2023-04-01T15:43:42;0.20;;;0.20;;
14849;SDS011;7517;48.400;11.770;2023-04-01T15:46:31;0.30;;;0.20;;
14849;SDS011;7517;48.400;11.770;2023-04-01T15:49:15;0.40;;;0.40;;
14849;SDS011;7517;48.400;11.770;2023-04-01T15:52:03;0.27;;;0.27;;
14849;SDS011;7517;48.400;11.770;2023-04-01T15:57:55;0.50;;;0.50;;
14849;SDS011;7517;48.400;11.770;2023-04-01T16:00:49;0.40;;;0.30;;
14849;SDS011;7517;48.400;11.770;2023-04-01T16:03:31;0.37;;;0.37;;
14849;SDS011;7517;48.400;11.770;2023-04-01T16:06:13;0.30;;;0.30;;
14849;SDS011;7517;48.400;11.770;2023-04-01T16:08:57;0.20;;;0.20;;
14849;SDS011;7517;48.400;11.770;2023-04-01T16:11:57;0.30;;;0.30;;
14849;SDS011;7517;48.400;11.770;2023-04-01T16:14:36;0.10;;;0.10;;
14849;SDS011;7517;48.400;11.770;2023-04-01T16:17:23;0.20;;;0.20;;
14849;SDS011;7517;48.400;11.770;2023-04-01T16:20:06;0.40;;;0.30;;
14849;SDS011;7517;48.400;11.770;2023-04-01T16:22:52;0.30;;;0.23;;
14849;SDS011;7517;48.400;11.770;2023-04-01T16:25:32;0.50;;;0.40;;
14849;SDS011;7517;48.400;11.770;2023-04-01T16:28:13;0.40;;;0.40;;
14849;SDS011;7517;48.400;11.770;2023-04-01T16:30:55;2.23;;;0.40;;
14849;SDS011;7517;48.400;11.770;2023-04-01T16:33:31;0.47;;;0.40;;
14849;SDS011;7517;48.400;11.770;2023-04-01T16:36:13;0.23;;;0.23;;
14849;SDS011;7517;48.400;11.770;2023-04-01T16:39:02;0.27;;;0.27;;
14849;SDS011;7517;48.400;11.770;2023-04-01T16:41:48;0.80;;;0.80;;
14849;SDS011;7517;48.400;11.770;2023-04-01T16:44:44;1.10;;;0.70;;
14849;SDS011;7517;48.400;11.770;2023-04-01T16:47:21;0.40;;;0.40;;
14849;SDS011;7517;48.400;11.770;2023-04-01T16:49:58;0.50;;;0.40;;
14849;SDS011;7517;48.400;11.770;2023-04-01T16:52:48;0.53;;;0.30;;
14849;SDS011;7517;48.400;11.770;2023-04-01T16:55:41;0.40;;;0.37;;
14849;SDS011;7517;48.400;11.770;2023-04-01T16:58:18;0.80;;;0.50;;
14849;SDS011;7517;48.400;11.770;2023-04-01T17:00:55;0.57;;;0.50;;
14849;SDS011;7517;48.400;11.770;2023-04-01T17:03:31;0.43;;;0.43;;
14849;SDS011;7517;48.400;11.770;2023-04-01T17:06:08;1.13;;;0.60;;
14849;SDS011;7517;48.400;11.770;2023-04-01T17:09:20;0.50;;;0.50;;
14849;SDS011;7517;48.400;11.770;2023-04-01T17:12:22;0.83;;;0.60;;
14849;SDS011;7517;48.400;11.770;2023-04-01T17:15:00;0.33;;;0.33;;
14849;SDS011;7517;48.400;11.770;2023-04-01T17:17:45;0.30;;;0.30;;
14849;SDS011;7517;48.400;11.770;2023-04-01T17:20:28;0.77;;;0.30;;
14849;SDS011;7517;48.400;11.770;2023-04-01T17:23:11;0.30;;;0.30;;
14849;SDS011;7517;48.400;11.770;2023-04-01T17:26:03;0.27;;;0.27;;
14849;SDS011;7517;48.400;11.770;2023-04-01T17:28:49;0.33;;;0.33;;
14849;SDS011;7517;48.400;11.770;2023-04-01T17:31:28;0.60;;;0.30;;
14849;SDS011;7517;48.400;11.770;2023-04-01T17:34:28;0.20;;;0.20;;
14849;SDS011;7517;48.400;11.770;2023-04-01T17:37:18;0.10;;;0.10;;
14849;SDS011;7517;48.400;11.770;2023-04-01T17:40:12;0.20;;;0.20;;
14849;SDS011;7517;48.400;11.770;2023-04-01T17:43:04;0.20;;;0.20;;
14849;SDS011;7517;48.400;11.770;2023-04-01T17:45:49;0.20;;;0.10;;
14849;SDS011;7517;48.400;11.770;2023-04-01T17:48:29;0.20;;;0.20;;
14849;SDS011;7517;48.400;11.770;2023-04-01T17:51:17;0.40;;;0.40;;
14849;SDS011;7517;48.400;11.770;2023-04-01T17:54:00;0.30;;;0.30;;